createdAt,value
2018-12-25T00:00:19.993Z,22.15
2018-12-25T00:02:48.171Z,22.16
2018-12-25T00:05:16.394Z,22.16
2018-12-25T00:07:44.703Z,22.16
2018-12-25T00:10:12.984Z,22.15
2018-12-25T00:12:41.162Z,22.17
2018-12-25T00:15:09.434Z,22.16
2018-12-25T00:17:37.627Z,22.17
2018-12-25T00:20:05.841Z,22.12
2018-12-25T00:22:33.999Z,22.14
2018-12-25T00:25:02.245Z,22.17
2018-12-25T00:27:30.426Z,22.15
2018-12-25T00:29:58.624Z,22.15
2018-12-25T00:32:26.844Z,22.08
2018-12-25T00:34:55.005Z,22.09
2018-12-25T00:37:23.202Z,22.08
2018-12-25T00:39:51.350Z,22.12
2018-12-25T00:42:19.548Z,22.12
2018-12-25T00:44:47.776Z,22.10
2018-12-25T00:47:16.058Z,22.14
2018-12-25T00:49:44.253Z,22.09
2018-12-25T00:52:12.430Z,22.09
2018-12-25T00:54:40.621Z,22.08
2018-12-25T00:57:08.827Z,22.13
2018-12-25T00:59:37.081Z,22.10
2018-12-25T01:02:05.338Z,22.08
2018-12-25T01:04:33.462Z,22.08
2018-12-25T01:07:01.647Z,22.11
2018-12-25T01:09:29.900Z,22.04
2018-12-25T01:11:58.121Z,22.02
2018-12-25T01:14:26.299Z,22.00
2018-12-25T01:16:54.495Z,22.05
2018-12-25T01:19:23.457Z,22.03
2018-12-25T01:21:51.960Z,22.03
2018-12-25T01:24:20.141Z,22.07
2018-12-25T01:26:48.423Z,22.04
2018-12-25T01:29:16.667Z,22.01
2018-12-25T01:31:44.859Z,22.04
2018-12-25T01:34:13.004Z,22.05
2018-12-25T01:36:41.317Z,22.04
2018-12-25T01:39:09.499Z,22.03
2018-12-25T01:41:37.747Z,22.01
2018-12-25T01:44:05.863Z,22.01
2018-12-25T01:46:34.264Z,22.03
2018-12-25T01:49:02.494Z,22.03
2018-12-25T01:51:30.681Z,22.00
2018-12-25T01:53:58.863Z,22.00
2018-12-25T01:56:27.025Z,22.02
2018-12-25T01:58:55.229Z,22.02
2018-12-25T02:01:23.437Z,22.03
2018-12-25T02:03:51.712Z,22.03
2018-12-25T02:06:19.914Z,22.02
2018-12-25T02:08:48.105Z,22.00
2018-12-25T02:11:16.317Z,22.01
2018-12-25T02:13:44.553Z,22.03
2018-12-25T02:16:12.735Z,22.00
2018-12-25T02:18:40.954Z,22.00
2018-12-25T02:21:09.162Z,21.98
2018-12-25T02:23:37.394Z,21.98
2018-12-25T02:26:05.626Z,21.97
2018-12-25T02:28:33.789Z,21.95
2018-12-25T02:31:01.952Z,21.95
2018-12-25T02:33:30.177Z,21.95
2018-12-25T02:35:58.397Z,21.99
2018-12-25T02:38:26.507Z,21.98
2018-12-25T02:40:54.709Z,21.97
2018-12-25T02:43:22.944Z,21.99
2018-12-25T02:45:51.133Z,22.02
2018-12-25T02:48:19.629Z,21.98
2018-12-25T02:50:47.870Z,22.01
2018-12-25T02:53:16.085Z,21.97
2018-12-25T02:55:44.233Z,21.95
2018-12-25T02:58:12.461Z,21.97
2018-12-25T03:00:40.643Z,21.94
2018-12-25T03:03:08.815Z,21.92
2018-12-25T03:05:37.020Z,21.93
2018-12-25T03:08:05.178Z,21.92
2018-12-25T03:10:33.429Z,21.91
2018-12-25T03:13:01.591Z,21.94
2018-12-25T03:15:29.753Z,21.91
2018-12-25T03:17:57.952Z,21.92
2018-12-25T03:20:27.313Z,21.94
2018-12-25T03:22:55.518Z,21.93
2018-12-25T03:25:23.743Z,21.95
2018-12-25T03:27:51.932Z,21.93
2018-12-25T03:30:20.134Z,21.93
2018-12-25T03:32:48.379Z,21.94
2018-12-25T03:35:16.636Z,21.93
2018-12-25T03:37:44.812Z,21.92
2018-12-25T03:40:13.040Z,21.92
2018-12-25T03:42:41.222Z,21.91
2018-12-25T03:45:09.462Z,21.89
2018-12-25T03:47:37.717Z,21.91
2018-12-25T03:50:10.782Z,21.89
2018-12-25T03:52:36.336Z,21.87
2018-12-25T03:55:04.623Z,21.89
2018-12-25T03:57:32.870Z,21.93
2018-12-25T04:00:01.253Z,21.94
2018-12-25T04:02:29.418Z,21.91
2018-12-25T04:04:57.592Z,21.83
2018-12-25T04:07:25.735Z,21.85
2018-12-25T04:09:54.045Z,21.81
2018-12-25T04:12:22.298Z,21.84
2018-12-25T04:14:50.510Z,21.88
2018-12-25T04:17:18.704Z,21.89
2018-12-25T04:19:46.853Z,21.91
2018-12-25T04:22:15.077Z,21.86
2018-12-25T04:24:43.308Z,21.87
2018-12-25T04:27:11.462Z,21.87
2018-12-25T04:29:39.658Z,21.87
2018-12-25T04:32:07.839Z,21.88
2018-12-25T04:34:36.078Z,21.91
2018-12-25T04:37:04.258Z,21.89
2018-12-25T04:39:32.432Z,21.87
2018-12-25T04:42:00.644Z,21.86
2018-12-25T04:44:28.867Z,21.89
2018-12-25T04:46:56.995Z,21.87
2018-12-25T04:49:25.167Z,21.88
2018-12-25T04:51:53.414Z,21.90
2018-12-25T04:54:21.575Z,21.86
2018-12-25T04:56:49.763Z,21.86
2018-12-25T04:59:17.964Z,21.85
2018-12-25T05:01:46.163Z,21.87
2018-12-25T05:04:14.333Z,21.86
2018-12-25T05:06:42.630Z,21.28
2018-12-25T05:09:10.817Z,21.88
2018-12-25T05:11:39.006Z,21.85
2018-12-25T05:14:07.153Z,21.86
2018-12-25T05:16:35.311Z,21.83
2018-12-25T05:19:03.501Z,21.83
2018-12-25T05:21:31.685Z,21.78
2018-12-25T05:23:59.847Z,21.82
2018-12-25T05:26:28.047Z,21.79
2018-12-25T05:28:56.240Z,21.81
2018-12-25T05:31:24.386Z,21.81
2018-12-25T05:33:52.568Z,21.80
2018-12-25T05:36:20.813Z,21.80
2018-12-25T05:38:49.031Z,21.76
2018-12-25T05:41:17.202Z,21.78
2018-12-25T05:43:45.378Z,21.84
2018-12-25T05:46:13.610Z,21.79
2018-12-25T05:48:41.834Z,21.81
2018-12-25T05:51:10.008Z,21.77
2018-12-25T05:53:38.226Z,21.79
2018-12-25T05:56:06.409Z,21.82
2018-12-25T05:58:34.614Z,21.79
2018-12-25T06:01:02.845Z,21.80
2018-12-25T06:03:31.025Z,21.74
2018-12-25T06:05:59.283Z,21.76
2018-12-25T06:08:27.491Z,21.76
2018-12-25T06:10:55.734Z,21.75
2018-12-25T06:13:23.868Z,21.77
2018-12-25T06:15:52.046Z,21.77
2018-12-25T06:18:20.273Z,21.76
2018-12-25T06:20:55.111Z,21.79
2018-12-25T06:23:18.270Z,21.76
2018-12-25T06:25:46.434Z,21.75
2018-12-25T06:28:14.557Z,21.74
2018-12-25T06:30:42.766Z,21.75
2018-12-25T06:33:10.966Z,21.73
2018-12-25T06:35:39.221Z,21.75
2018-12-25T06:38:07.391Z,21.74
2018-12-25T06:40:35.652Z,21.74
2018-12-25T06:43:03.896Z,21.74
2018-12-25T06:45:32.089Z,21.74
2018-12-25T06:48:00.290Z,21.75
2018-12-25T06:50:28.507Z,21.76
2018-12-25T06:52:56.703Z,21.73
2018-12-25T06:55:24.902Z,21.74
2018-12-25T06:57:53.077Z,21.73
2018-12-25T07:00:21.368Z,21.71
2018-12-25T07:02:49.522Z,21.70
2018-12-25T07:05:17.706Z,21.70
2018-12-25T07:07:45.994Z,21.69
2018-12-25T07:10:14.214Z,21.70
2018-12-25T07:12:42.394Z,21.69
2018-12-25T07:15:10.605Z,21.68
2018-12-25T07:17:38.792Z,21.69
2018-12-25T07:20:06.926Z,21.72
2018-12-25T07:22:44.306Z,21.72
2018-12-25T07:25:12.563Z,21.68
2018-12-25T07:27:40.748Z,21.69
2018-12-25T07:30:08.955Z,21.66
2018-12-25T07:32:37.107Z,21.66
2018-12-25T07:35:05.283Z,21.69
2018-12-25T07:37:33.486Z,21.69
2018-12-25T07:40:01.625Z,21.63
2018-12-25T07:42:29.757Z,21.62
2018-12-25T07:44:57.925Z,21.60
2018-12-25T07:47:26.074Z,21.64
2018-12-25T07:49:54.294Z,21.61
2018-12-25T07:52:22.493Z,21.63
2018-12-25T07:54:50.670Z,21.64
2018-12-25T07:57:18.880Z,21.60
2018-12-25T07:59:47.061Z,21.63
2018-12-25T08:02:15.207Z,21.63
2018-12-25T08:04:43.366Z,21.62
2018-12-25T08:07:11.624Z,21.61
2018-12-25T08:09:39.765Z,21.61
2018-12-25T08:12:08.027Z,21.68
2018-12-25T08:14:36.174Z,21.68
2018-12-25T08:17:04.338Z,21.71
2018-12-25T08:19:32.565Z,21.75
2018-12-25T08:22:00.854Z,21.77
2018-12-25T08:24:29.050Z,21.87
2018-12-25T08:26:57.266Z,21.82
2018-12-25T08:29:25.566Z,21.75
2018-12-25T08:31:53.798Z,21.68
2018-12-25T08:34:22.030Z,21.66
2018-12-25T08:36:50.251Z,21.72
2018-12-25T08:39:18.377Z,21.67
2018-12-25T08:41:46.598Z,21.63
2018-12-25T08:44:14.765Z,21.64
2018-12-25T08:46:42.882Z,21.61
2018-12-25T08:49:11.015Z,21.60
2018-12-25T08:51:39.177Z,21.64
2018-12-25T08:54:07.307Z,21.63
2018-12-25T08:56:35.453Z,21.65
2018-12-25T08:59:03.574Z,21.61
2018-12-25T09:01:31.685Z,21.67
2018-12-25T09:03:59.818Z,21.63
2018-12-25T09:06:27.933Z,21.62
2018-12-25T09:08:56.070Z,21.64
2018-12-25T09:11:24.282Z,21.57
2018-12-25T09:13:52.424Z,21.54
2018-12-25T09:16:20.581Z,21.58
2018-12-25T09:18:48.697Z,21.58
2018-12-25T09:21:16.833Z,21.55
2018-12-25T09:23:44.945Z,21.50
2018-12-25T09:26:13.064Z,21.54
2018-12-25T09:28:41.205Z,21.53
2018-12-25T09:31:09.342Z,21.58
2018-12-25T09:33:37.469Z,21.55
2018-12-25T09:36:05.590Z,21.53
2018-12-25T09:38:33.701Z,21.53
2018-12-25T09:41:01.874Z,21.54
2018-12-25T09:43:29.994Z,21.56
2018-12-25T09:45:58.123Z,21.55
2018-12-25T09:48:26.274Z,21.59
2018-12-25T09:50:54.414Z,21.61
2018-12-25T09:53:22.558Z,21.64
2018-12-25T09:55:50.678Z,21.54
2018-12-25T09:58:18.806Z,21.56
2018-12-25T10:00:46.931Z,21.54
2018-12-25T10:03:15.063Z,21.59
2018-12-25T10:05:43.222Z,21.58
2018-12-25T10:08:11.369Z,21.55
2018-12-25T10:10:39.481Z,21.56
2018-12-25T10:13:07.676Z,21.59
2018-12-25T10:15:35.828Z,21.57
2018-12-25T10:18:04.006Z,21.59
2018-12-25T10:20:32.105Z,21.62
2018-12-25T10:23:00.239Z,21.56
2018-12-25T10:25:28.365Z,21.60
2018-12-25T10:27:56.493Z,21.55
2018-12-25T10:30:24.634Z,21.58
2018-12-25T10:32:52.754Z,21.56
2018-12-25T10:35:20.986Z,21.55
2018-12-25T10:37:49.103Z,21.54
2018-12-25T10:40:17.267Z,21.50
2018-12-25T10:42:45.411Z,21.55
2018-12-25T10:45:13.566Z,21.59
2018-12-25T10:47:41.692Z,21.55
2018-12-25T10:50:09.827Z,21.58
2018-12-25T10:52:37.961Z,21.59
2018-12-25T10:55:06.159Z,21.57
2018-12-25T10:57:34.268Z,21.55
2018-12-25T11:00:02.405Z,21.53
2018-12-25T11:02:30.554Z,21.55
2018-12-25T11:04:58.673Z,21.53
2018-12-25T11:07:26.900Z,21.50
2018-12-25T11:09:55.355Z,21.53
2018-12-25T11:12:23.581Z,21.49
2018-12-25T11:14:51.707Z,21.51
2018-12-25T11:17:19.826Z,21.52
2018-12-25T11:19:47.965Z,21.52
2018-12-25T11:22:19.772Z,21.52
2018-12-25T11:24:45.871Z,21.52
2018-12-25T11:27:13.994Z,21.48
2018-12-25T11:29:42.143Z,21.48
2018-12-25T11:32:10.291Z,21.51
2018-12-25T11:34:38.452Z,21.51
2018-12-25T11:37:06.756Z,21.54
2018-12-25T11:39:34.882Z,21.50
2018-12-25T11:42:03.010Z,21.53
2018-12-25T11:44:31.183Z,21.49
2018-12-25T11:46:59.293Z,21.48
2018-12-25T11:49:27.445Z,21.47
2018-12-25T11:51:55.582Z,21.48
2018-12-25T11:54:23.701Z,21.46
2018-12-25T11:56:51.870Z,21.46
2018-12-25T11:59:20.071Z,21.48
2018-12-25T12:01:48.169Z,21.49
2018-12-25T12:04:16.304Z,21.50
2018-12-25T12:06:44.419Z,21.45
2018-12-25T12:09:12.579Z,21.44
2018-12-25T12:11:40.695Z,21.43
2018-12-25T12:14:08.841Z,21.42
2018-12-25T12:16:36.950Z,21.45
2018-12-25T12:19:05.069Z,21.47
2018-12-25T12:21:33.198Z,21.48
2018-12-25T12:24:01.342Z,21.44
2018-12-25T12:26:29.497Z,21.41
2018-12-25T12:28:57.614Z,21.43
2018-12-25T12:31:25.741Z,21.40
2018-12-25T12:33:53.963Z,21.45
2018-12-25T12:36:22.158Z,21.48
2018-12-25T12:38:50.302Z,21.43
2018-12-25T12:41:18.439Z,21.42
2018-12-25T12:43:46.566Z,21.41
2018-12-25T12:46:14.702Z,21.48
2018-12-25T12:48:42.818Z,20.90
2018-12-25T12:51:10.983Z,21.41
2018-12-25T12:53:39.099Z,21.37
2018-12-25T12:56:07.218Z,21.42
2018-12-25T12:58:35.441Z,21.40
2018-12-25T13:01:03.595Z,21.40
2018-12-25T13:03:31.840Z,21.40
2018-12-25T13:05:59.957Z,21.43
2018-12-25T13:08:28.077Z,21.42
2018-12-25T13:10:56.203Z,21.41
2018-12-25T13:13:24.414Z,21.42
2018-12-25T13:15:52.529Z,21.35
2018-12-25T13:18:20.658Z,21.39
2018-12-25T13:20:48.784Z,21.37
2018-12-25T13:23:16.952Z,21.31
2018-12-25T13:25:45.069Z,21.35
2018-12-25T13:28:13.275Z,21.34
2018-12-25T13:30:41.391Z,21.30
2018-12-25T13:33:09.526Z,21.38
2018-12-25T13:35:37.625Z,21.34
2018-12-25T13:38:05.762Z,21.32
2018-12-25T13:40:33.898Z,21.35
2018-12-25T13:43:02.030Z,21.34
2018-12-25T13:45:30.151Z,21.37
2018-12-25T13:47:58.275Z,21.35
2018-12-25T13:50:26.391Z,21.30
2018-12-25T13:53:02.559Z,21.37
2018-12-25T13:55:24.299Z,21.54
2018-12-25T13:57:52.439Z,21.71
2018-12-25T14:00:22.553Z,21.67
2018-12-25T14:02:51.369Z,21.53
2018-12-25T14:05:19.586Z,21.51
2018-12-25T14:07:47.668Z,21.49
2018-12-25T14:10:16.170Z,21.47
2018-12-25T14:12:44.342Z,21.42
2018-12-25T14:15:12.762Z,21.50
2018-12-25T14:17:40.854Z,21.59
2018-12-25T14:20:09.019Z,21.46
2018-12-25T14:22:37.549Z,21.47
2018-12-25T14:25:06.022Z,21.43
2018-12-25T14:27:34.122Z,21.51
2018-12-25T14:30:02.611Z,21.59
2018-12-25T14:32:30.725Z,21.46
2018-12-25T14:34:58.846Z,21.46
2018-12-25T14:37:27.004Z,21.47
2018-12-25T14:39:55.125Z,21.53
2018-12-25T14:42:23.245Z,21.52
2018-12-25T14:44:51.383Z,21.58
2018-12-25T14:47:19.519Z,21.58
2018-12-25T14:49:47.690Z,21.64
2018-12-25T14:52:15.790Z,21.53
2018-12-25T14:54:43.904Z,21.48
2018-12-25T14:57:12.063Z,21.44
2018-12-25T14:59:40.257Z,21.50
2018-12-25T15:02:08.456Z,21.73
2018-12-25T15:04:36.561Z,21.64
2018-12-25T15:07:05.371Z,21.54
2018-12-25T15:09:33.477Z,21.53
2018-12-25T15:12:01.622Z,21.49
2018-12-25T15:14:29.754Z,21.46
2018-12-25T15:16:57.873Z,21.48
2018-12-25T15:19:26.018Z,21.48
2018-12-25T15:21:54.213Z,21.65
2018-12-25T15:24:22.586Z,21.69
2018-12-25T15:26:50.754Z,21.64
2018-12-25T15:29:18.966Z,21.59
2018-12-25T15:31:47.080Z,21.60
2018-12-25T15:34:15.282Z,21.52
2018-12-25T15:36:43.513Z,21.62
2018-12-25T15:39:12.918Z,21.61
2018-12-25T15:41:41.053Z,21.66
2018-12-25T15:44:09.192Z,21.71
2018-12-25T15:46:37.406Z,21.71
2018-12-25T15:49:05.567Z,21.64
2018-12-25T15:51:33.702Z,21.87
2018-12-25T15:54:01.824Z,21.98
2018-12-25T15:56:30.064Z,22.12
2018-12-25T15:58:58.118Z,22.33
2018-12-25T16:01:26.245Z,22.38
2018-12-25T16:03:54.411Z,22.23
2018-12-25T16:06:22.570Z,22.12
2018-12-25T16:08:50.684Z,22.31
2018-12-25T16:11:18.834Z,22.42
2018-12-25T16:13:46.949Z,22.45
2018-12-25T16:16:15.099Z,22.59
2018-12-25T16:18:43.227Z,22.35
2018-12-25T16:21:11.346Z,22.12
2018-12-25T16:23:45.260Z,22.00
2018-12-25T16:26:09.262Z,22.01
2018-12-25T16:28:37.401Z,22.06
2018-12-25T16:31:05.580Z,22.05
2018-12-25T16:33:33.706Z,22.06
2018-12-25T16:36:01.825Z,22.14
2018-12-25T16:38:29.959Z,22.05
2018-12-25T16:40:58.110Z,22.15
2018-12-25T16:43:26.234Z,22.14
2018-12-25T16:45:54.354Z,22.17
2018-12-25T16:48:22.482Z,22.13
2018-12-25T16:50:50.596Z,22.14
2018-12-25T16:53:18.750Z,22.15
2018-12-25T16:55:46.869Z,22.13
2018-12-25T16:58:15.186Z,22.10
2018-12-25T17:00:43.309Z,22.11
2018-12-25T17:03:12.033Z,22.10
2018-12-25T17:05:40.525Z,22.08
2018-12-25T17:08:08.622Z,22.18
2018-12-25T17:10:37.031Z,22.20
2018-12-25T17:13:05.217Z,22.21
2018-12-25T17:15:33.409Z,22.24
2018-12-25T17:18:01.569Z,22.18
2018-12-25T17:20:29.767Z,22.23
2018-12-25T17:22:57.908Z,22.30
2018-12-25T17:25:26.418Z,22.39
2018-12-25T17:27:55.056Z,22.30
2018-12-25T17:30:23.405Z,22.19
2018-12-25T17:32:51.586Z,22.29
2018-12-25T17:35:19.975Z,22.34
2018-12-25T17:37:48.281Z,22.34
2018-12-25T17:40:16.591Z,22.30
2018-12-25T17:42:45.452Z,22.37
2018-12-25T17:45:13.574Z,22.28
2018-12-25T17:47:42.027Z,22.39
2018-12-25T17:50:10.647Z,22.32
2018-12-25T17:52:38.800Z,22.38
2018-12-25T17:55:06.939Z,22.36
2018-12-25T17:57:35.077Z,22.34
2018-12-25T18:00:03.231Z,22.32
2018-12-25T18:02:31.495Z,22.37
2018-12-25T18:04:59.971Z,22.42
2018-12-25T18:07:28.144Z,22.36
2018-12-25T18:09:56.293Z,22.41
2018-12-25T18:12:24.481Z,22.41
2018-12-25T18:14:52.714Z,22.50
2018-12-25T18:17:21.150Z,22.46
2018-12-25T18:19:49.452Z,21.50
2018-12-25T18:22:17.831Z,22.49
2018-12-25T18:24:46.100Z,22.51
2018-12-25T18:27:14.258Z,22.48
2018-12-25T18:29:42.538Z,22.55
2018-12-25T18:32:10.740Z,22.53
2018-12-25T18:34:39.276Z,22.55
2018-12-25T18:37:07.720Z,22.63
2018-12-25T18:39:36.245Z,22.67
2018-12-25T18:42:04.394Z,22.66
2018-12-25T18:44:32.559Z,22.75
2018-12-25T18:47:01.177Z,22.71
2018-12-25T18:49:29.418Z,22.67
2018-12-25T18:51:57.711Z,22.65
2018-12-25T18:54:27.957Z,22.64
2018-12-25T18:56:56.045Z,22.78
2018-12-25T18:59:24.257Z,22.75
2018-12-25T19:01:53.212Z,22.80
2018-12-25T19:04:21.850Z,22.67
2018-12-25T19:06:50.477Z,22.74
2018-12-25T19:09:19.169Z,22.82
2018-12-25T19:11:47.822Z,22.82
2018-12-25T19:14:16.386Z,22.87
2018-12-25T19:16:45.548Z,22.85
2018-12-25T19:19:13.621Z,22.79
2018-12-25T19:21:42.571Z,22.78
2018-12-25T19:24:11.365Z,22.90
2018-12-25T19:26:39.599Z,22.97
2018-12-25T19:29:08.203Z,23.10
2018-12-25T19:31:36.579Z,22.99
2018-12-25T19:34:04.743Z,22.83
2018-12-25T19:36:32.963Z,22.89
2018-12-25T19:39:01.179Z,22.89
2018-12-25T19:41:29.499Z,22.94
2018-12-25T19:43:57.724Z,23.01
2018-12-25T19:46:25.954Z,23.00
2018-12-25T19:48:54.085Z,23.03
2018-12-25T19:51:23.003Z,22.99
2018-12-25T19:53:51.170Z,23.11
2018-12-25T19:56:19.410Z,23.07
2018-12-25T19:58:47.594Z,23.12
2018-12-25T20:01:15.786Z,23.11
2018-12-25T20:04:06.285Z,23.17
2018-12-25T20:06:52.379Z,23.12
2018-12-25T20:09:39.727Z,23.17
2018-12-25T20:12:29.925Z,23.27
2018-12-25T20:15:16.442Z,23.37
2018-12-25T20:17:55.146Z,23.31
2018-12-25T20:20:41.245Z,23.31
2018-12-25T20:23:27.249Z,23.37
2018-12-25T20:26:17.409Z,23.34
2018-12-25T20:29:23.098Z,23.43
2018-12-25T20:32:13.401Z,23.30
2018-12-25T20:35:03.451Z,23.37
2018-12-25T20:37:52.010Z,23.44
2018-12-25T20:40:38.146Z,23.45
2018-12-25T20:43:43.665Z,23.44
2018-12-25T20:46:36.938Z,23.52
2018-12-25T20:49:33.310Z,23.51
2018-12-25T20:52:19.469Z,23.58
2018-12-25T20:55:01.165Z,23.54
2018-12-25T20:57:54.871Z,23.63
2018-12-25T21:00:45.195Z,23.54
2018-12-25T21:03:38.056Z,23.69
2018-12-25T21:06:28.378Z,23.65
2018-12-25T21:09:27.563Z,23.74
2018-12-25T21:12:14.814Z,23.69
2018-12-25T21:15:00.947Z,23.72
2018-12-25T21:17:51.584Z,23.67
2018-12-25T21:20:51.203Z,23.79
2018-12-25T21:23:37.899Z,23.80
2018-12-25T21:26:24.319Z,23.81
2018-12-25T21:28:52.418Z,23.85
2018-12-25T21:31:21.277Z,23.81
2018-12-25T21:33:49.461Z,23.84
2018-12-25T21:36:18.154Z,23.80
2018-12-25T21:38:47.160Z,23.83
2018-12-25T21:41:15.403Z,23.87
2018-12-25T21:43:43.525Z,23.91
2018-12-25T21:46:11.739Z,23.88
2018-12-25T21:48:39.891Z,23.90
2018-12-25T21:51:08.010Z,23.90
2018-12-25T21:53:36.129Z,23.95
2018-12-25T21:56:04.290Z,23.99
2018-12-25T21:58:32.419Z,23.88
2018-12-25T22:01:00.575Z,23.93
2018-12-25T22:03:28.745Z,23.91
2018-12-25T22:05:56.844Z,23.96
2018-12-25T22:08:24.997Z,24.02
2018-12-25T22:10:53.123Z,24.06
2018-12-25T22:13:21.250Z,23.41
2018-12-25T22:15:49.366Z,23.75
2018-12-25T22:18:17.558Z,23.86
2018-12-25T22:20:45.889Z,23.97
2018-12-25T22:23:14.042Z,24.01
2018-12-25T22:25:42.424Z,24.09
2018-12-25T22:28:10.557Z,24.10
2018-12-25T22:30:38.789Z,24.08
2018-12-25T22:33:06.947Z,24.07
2018-12-25T22:35:35.135Z,24.16
2018-12-25T22:38:03.287Z,24.10
2018-12-25T22:40:31.449Z,24.10
2018-12-25T22:42:59.659Z,24.24
2018-12-25T22:45:27.819Z,24.41
2018-12-25T22:47:56.006Z,24.29
2018-12-25T22:50:24.245Z,24.33
2018-12-25T22:52:52.398Z,24.26
2018-12-25T22:55:20.549Z,24.27
2018-12-25T22:57:48.713Z,24.31
2018-12-25T23:00:17.935Z,24.28
2018-12-25T23:02:46.091Z,24.25
2018-12-25T23:05:14.282Z,24.30
2018-12-25T23:07:42.424Z,24.39
2018-12-25T23:10:10.638Z,24.32
2018-12-25T23:12:38.843Z,24.33
2018-12-25T23:15:07.855Z,24.37
2018-12-25T23:17:36.116Z,24.38
2018-12-25T23:20:04.695Z,24.34
2018-12-25T23:22:32.904Z,24.28
2018-12-25T23:25:01.085Z,24.31
2018-12-25T23:27:29.236Z,24.43
2018-12-25T23:29:57.448Z,24.48
2018-12-25T23:32:25.722Z,24.30
2018-12-25T23:34:53.877Z,24.29
2018-12-25T23:37:22.098Z,24.39
2018-12-25T23:39:50.256Z,24.25
2018-12-25T23:42:18.443Z,24.35
2018-12-25T23:44:46.602Z,24.33
2018-12-25T23:47:14.813Z,24.38
2018-12-25T23:49:43.041Z,24.38
2018-12-25T23:52:11.238Z,24.36
2018-12-25T23:54:39.428Z,24.39
2018-12-25T23:57:07.607Z,24.28
2018-12-25T23:59:35.840Z,24.30
